createdAt,value
2018-03-30T00:00:46.834Z,5.10
2018-03-30T00:03:15.090Z,4.35
2018-03-30T00:05:43.371Z,6.15
2018-03-30T00:08:11.685Z,6.45
2018-03-30T00:10:44.737Z,11.43
2018-03-30T00:13:13.018Z,6.50
2018-03-30T00:15:40.520Z,5.20
2018-03-30T00:18:08.038Z,5.43
2018-03-30T00:20:35.532Z,5.15
2018-03-30T00:23:03.054Z,5.12
2018-03-30T00:25:30.552Z,5.47
2018-03-30T00:27:58.054Z,5.18
2018-03-30T00:30:26.318Z,5.62
2018-03-30T00:32:53.800Z,5.32
2018-03-30T00:35:21.319Z,5.55
2018-03-30T00:37:48.817Z,5.50
2018-03-30T00:40:17.090Z,5.60
2018-03-30T00:42:45.346Z,5.07
2018-03-30T00:45:12.851Z,5.95
2018-03-30T00:47:40.362Z,6.43
2018-03-30T00:50:07.876Z,5.37
2018-03-30T00:52:35.396Z,5.50
2018-03-30T00:55:03.691Z,5.50
2018-03-30T00:57:31.193Z,5.70
2018-03-30T00:59:58.697Z,5.90
2018-03-30T01:02:26.235Z,5.50
2018-03-30T01:04:54.495Z,6.32
2018-03-30T01:07:21.994Z,5.72
2018-03-30T01:09:49.499Z,5.82
2018-03-30T01:12:17.002Z,5.32
2018-03-30T01:14:45.275Z,5.62
2018-03-30T01:17:13.564Z,5.07
2018-03-30T01:19:41.071Z,5.82
2018-03-30T01:22:08.561Z,5.25
2018-03-30T01:24:36.855Z,5.50
2018-03-30T01:27:04.358Z,5.62
2018-03-30T01:29:31.859Z,6.22
2018-03-30T01:31:59.363Z,5.35
2018-03-30T01:34:26.874Z,5.20
2018-03-30T01:36:55.171Z,5.40
2018-03-30T01:39:22.681Z,4.62
2018-03-30T01:41:50.207Z,4.90
2018-03-30T01:44:17.716Z,4.70
2018-03-30T01:46:46.007Z,5.50
2018-03-30T01:49:14.278Z,5.22
2018-03-30T01:51:42.561Z,5.20
2018-03-30T01:54:10.810Z,5.93
2018-03-30T01:56:38.328Z,6.70
2018-03-30T01:59:05.848Z,6.87
2018-03-30T02:01:34.120Z,5.43
2018-03-30T02:04:02.369Z,6.68
2018-03-30T02:06:29.892Z,6.90
2018-03-30T02:08:57.389Z,6.32
2018-03-30T02:11:24.912Z,6.30
2018-03-30T02:13:52.422Z,6.72
2018-03-30T02:16:20.687Z,6.30
2018-03-30T02:18:48.988Z,6.18
2018-03-30T02:21:17.275Z,5.55
2018-03-30T02:23:44.788Z,5.78
2018-03-30T02:26:12.341Z,5.50
2018-03-30T02:28:39.835Z,5.95
2018-03-30T02:31:08.160Z,5.50
2018-03-30T02:33:35.656Z,6.18
2018-03-30T02:36:03.173Z,5.85
2018-03-30T02:38:30.711Z,6.60
2018-03-30T02:40:58.216Z,5.55
2018-03-30T02:43:25.717Z,5.50
2018-03-30T02:45:53.273Z,5.85
2018-03-30T02:48:21.533Z,6.72
2018-03-30T02:50:49.831Z,6.57
2018-03-30T02:53:17.334Z,7.28
2018-03-30T02:55:44.886Z,7.12
2018-03-30T02:58:12.371Z,6.72
2018-03-30T03:00:39.854Z,6.60
2018-03-30T03:03:07.383Z,6.70
2018-03-30T03:05:34.882Z,7.25
2018-03-30T03:08:02.379Z,6.75
2018-03-30T03:10:29.925Z,6.43
2018-03-30T03:12:57.430Z,7.60
2018-03-30T03:15:25.687Z,6.80
2018-03-30T03:17:53.218Z,7.75
2018-03-30T03:20:20.708Z,7.57
2018-03-30T03:22:48.202Z,8.07
2018-03-30T03:25:16.501Z,7.90
2018-03-30T03:27:43.991Z,7.72
2018-03-30T03:30:11.477Z,7.60
2018-03-30T03:32:39.757Z,7.62
2018-03-30T03:35:08.008Z,8.50
2018-03-30T03:37:35.503Z,7.78
2018-03-30T03:40:03.759Z,7.80
2018-03-30T03:42:32.047Z,7.72
2018-03-30T03:45:00.311Z,7.65
2018-03-30T03:47:28.567Z,7.70
2018-03-30T03:49:56.080Z,7.50
2018-03-30T03:52:23.567Z,7.80
2018-03-30T03:54:51.112Z,7.32
2018-03-30T03:57:19.349Z,7.55
2018-03-30T03:59:47.607Z,7.85
2018-03-30T04:02:15.119Z,6.60
2018-03-30T04:04:42.647Z,8.00
2018-03-30T04:07:10.891Z,8.15
2018-03-30T04:09:38.387Z,7.55
2018-03-30T04:12:05.892Z,7.72
2018-03-30T04:14:33.422Z,7.28
2018-03-30T04:17:00.904Z,6.97
2018-03-30T04:19:28.416Z,6.80
2018-03-30T04:21:56.665Z,7.60
2018-03-30T04:24:24.159Z,8.52
2018-03-30T04:26:51.685Z,8.10
2018-03-30T04:29:19.188Z,7.78
2018-03-30T04:31:46.670Z,9.60
2018-03-30T04:34:14.181Z,12.90
2018-03-30T04:36:41.693Z,11.95
2018-03-30T04:39:09.221Z,10.20
2018-03-30T04:41:36.747Z,9.27
2018-03-30T04:44:04.233Z,9.23
2018-03-30T04:46:31.752Z,9.95
2018-03-30T04:48:59.243Z,9.32
2018-03-30T04:51:26.741Z,8.75
2018-03-30T04:53:54.270Z,9.48
2018-03-30T04:56:21.762Z,9.27
2018-03-30T04:58:49.258Z,8.27
2018-03-30T05:01:16.774Z,8.45
2018-03-30T05:03:44.279Z,9.27
2018-03-30T05:06:12.542Z,8.43
2018-03-30T05:08:40.076Z,8.77
2018-03-30T05:11:07.580Z,8.75
2018-03-30T05:13:35.087Z,8.48
2018-03-30T05:16:02.601Z,8.70
2018-03-30T05:18:30.088Z,9.40
2018-03-30T05:20:57.607Z,8.23
2018-03-30T05:23:25.097Z,9.35
2018-03-30T05:25:52.606Z,10.90
2018-03-30T05:28:20.103Z,9.43
2018-03-30T05:30:47.631Z,10.23
2018-03-30T05:33:15.126Z,10.68
2018-03-30T05:35:42.623Z,10.27
2018-03-30T05:38:10.136Z,9.63
2018-03-30T05:40:37.620Z,10.13
2018-03-30T05:43:05.153Z,9.55
2018-03-30T05:45:32.667Z,9.80
2018-03-30T05:48:00.167Z,10.25
2018-03-30T05:50:27.683Z,10.73
2018-03-30T05:52:55.177Z,9.85
2018-03-30T05:55:22.681Z,9.80
2018-03-30T05:57:50.202Z,10.55
2018-03-30T06:00:17.691Z,10.90
2018-03-30T06:02:45.228Z,11.18
2018-03-30T06:05:12.723Z,10.80
2018-03-30T06:07:41.017Z,10.80
2018-03-30T06:10:09.305Z,11.35
2018-03-30T06:12:37.561Z,10.88
2018-03-30T06:15:05.858Z,11.80
2018-03-30T06:17:34.125Z,13.60
2018-03-30T06:20:02.431Z,14.15
2018-03-30T06:22:29.966Z,15.43
2018-03-30T06:24:58.248Z,15.77
2018-03-30T06:27:25.745Z,15.50
2018-03-30T06:29:53.304Z,14.60
2018-03-30T06:32:20.882Z,16.10
2018-03-30T06:34:48.371Z,15.88
2018-03-30T06:37:15.881Z,15.98
2018-03-30T06:39:43.427Z,16.60
2018-03-30T06:42:10.938Z,18.10
2018-03-30T06:44:39.219Z,18.48
2018-03-30T06:47:07.515Z,19.35
2018-03-30T06:49:35.014Z,17.00
2018-03-30T06:52:02.546Z,18.60
2018-03-30T06:54:30.068Z,17.75
2018-03-30T06:56:58.368Z,15.75
2018-03-30T06:59:25.879Z,16.48
2018-03-30T07:01:53.438Z,17.00
2018-03-30T07:04:20.968Z,16.70
2018-03-30T07:06:48.484Z,17.50
2018-03-30T07:09:16.763Z,16.35
2018-03-30T07:11:45.057Z,17.25
2018-03-30T07:14:12.588Z,17.10
2018-03-30T07:16:40.906Z,17.00
2018-03-30T07:19:08.430Z,16.73
2018-03-30T07:21:36.722Z,16.98
2018-03-30T07:24:04.268Z,16.75
2018-03-30T07:26:32.546Z,17.20
2018-03-30T07:29:00.830Z,17.98
2018-03-30T07:31:29.117Z,19.10
2018-03-30T07:33:56.676Z,19.20
2018-03-30T07:36:24.183Z,18.35
2018-03-30T07:38:51.722Z,19.30
2018-03-30T07:41:19.704Z,17.70
2018-03-30T07:43:47.310Z,17.20
2018-03-30T07:46:14.836Z,15.75
2018-03-30T07:48:42.399Z,16.67
2018-03-30T07:51:09.904Z,14.73
2018-03-30T07:53:37.453Z,15.45
2018-03-30T07:56:04.971Z,16.40
2018-03-30T07:58:32.502Z,15.67
2018-03-30T08:01:00.010Z,14.20
2018-03-30T08:03:28.325Z,14.53
2018-03-30T08:05:55.912Z,13.45
2018-03-30T08:08:23.515Z,14.10
2018-03-30T08:10:51.793Z,13.43
2018-03-30T08:13:20.043Z,13.50
2018-03-30T08:15:47.572Z,14.47
2018-03-30T08:18:15.079Z,13.63
2018-03-30T08:20:43.474Z,12.10
2018-03-30T08:23:10.985Z,13.73
2018-03-30T08:25:39.396Z,10.60
2018-03-30T08:28:06.979Z,11.00
2018-03-30T08:30:34.498Z,10.70
2018-03-30T08:33:02.006Z,10.20
2018-03-30T08:35:29.575Z,10.50
2018-03-30T08:37:57.112Z,10.30
2018-03-30T08:40:24.645Z,9.30
2018-03-30T08:42:52.987Z,10.27
2018-03-30T08:45:20.487Z,10.17
2018-03-30T08:47:48.767Z,9.13
2018-03-30T08:50:17.081Z,8.93
2018-03-30T08:52:44.603Z,10.00
2018-03-30T08:55:12.915Z,9.17
2018-03-30T08:57:40.453Z,8.70
2018-03-30T09:00:07.962Z,9.10
2018-03-30T09:02:35.503Z,9.07
2018-03-30T09:05:03.028Z,9.67
2018-03-30T09:07:30.567Z,9.17
2018-03-30T09:09:58.091Z,9.00
2018-03-30T09:12:25.638Z,8.30
2018-03-30T09:14:53.186Z,7.53
2018-03-30T09:17:20.692Z,7.03
2018-03-30T09:19:48.249Z,7.70
2018-03-30T09:22:15.806Z,7.30
2018-03-30T09:24:43.333Z,7.30
2018-03-30T09:27:10.923Z,7.40
2018-03-30T09:29:38.480Z,9.40
2018-03-30T09:32:06.031Z,9.50
2018-03-30T09:34:33.595Z,9.30
2018-03-30T09:37:01.169Z,8.10
2018-03-30T09:39:28.675Z,8.30
2018-03-30T09:41:56.234Z,8.77
2018-03-30T09:44:23.751Z,7.73
2018-03-30T09:46:52.079Z,8.13
2018-03-30T09:49:19.656Z,8.30
2018-03-30T09:51:47.215Z,7.63
2018-03-30T09:54:14.752Z,7.80
2018-03-30T09:56:42.303Z,8.10
2018-03-30T09:59:10.592Z,8.50
2018-03-30T10:01:38.115Z,8.03
2018-03-30T10:04:08.363Z,7.80
2018-03-30T10:06:35.865Z,8.10
2018-03-30T10:09:03.418Z,6.80
2018-03-30T10:11:30.973Z,7.77
2018-03-30T10:13:58.499Z,8.47
2018-03-30T10:16:26.052Z,8.10
2018-03-30T10:18:53.565Z,7.77
2018-03-30T10:21:21.115Z,7.73
2018-03-30T10:23:48.635Z,7.30
2018-03-30T10:26:16.163Z,6.70
2018-03-30T10:28:43.686Z,6.60
2018-03-30T10:31:11.231Z,5.80
2018-03-30T10:33:38.762Z,6.70
2018-03-30T10:36:06.282Z,6.50
2018-03-30T10:38:33.856Z,5.93
2018-03-30T10:41:02.120Z,6.13
2018-03-30T10:43:29.680Z,5.83
2018-03-30T10:45:57.188Z,6.13
2018-03-30T10:48:24.703Z,5.83
2018-03-30T10:50:52.976Z,6.57
2018-03-30T10:53:21.267Z,6.03
2018-03-30T10:55:49.583Z,6.20
2018-03-30T10:58:17.114Z,6.63
2018-03-30T11:00:44.606Z,6.13
2018-03-30T11:03:13.552Z,6.17
2018-03-30T11:05:41.852Z,6.10
2018-03-30T11:08:09.360Z,6.30
2018-03-30T11:10:36.882Z,6.40
2018-03-30T11:13:04.422Z,6.50
2018-03-30T11:15:31.940Z,6.33
2018-03-30T11:17:59.538Z,6.50
2018-03-30T11:20:27.012Z,6.90
2018-03-30T11:22:54.538Z,5.30
2018-03-30T11:25:22.055Z,5.40
2018-03-30T11:27:49.613Z,5.67
2018-03-30T11:30:17.151Z,5.20
2018-03-30T11:32:44.722Z,6.20
2018-03-30T11:35:12.274Z,4.90
2018-03-30T11:37:39.790Z,5.50
2018-03-30T11:40:08.176Z,5.67
2018-03-30T11:42:35.723Z,5.33
2018-03-30T11:45:04.011Z,5.10
2018-03-30T11:47:32.301Z,5.40
2018-03-30T11:49:59.802Z,4.83
2018-03-30T11:52:27.348Z,4.90
2018-03-30T11:54:54.872Z,4.10
2018-03-30T11:57:22.477Z,4.30
2018-03-30T11:59:49.982Z,4.20
2018-03-30T12:02:18.278Z,4.57
2018-03-30T12:04:45.782Z,4.60
2018-03-30T12:07:13.311Z,4.23
2018-03-30T12:09:40.802Z,3.83
2018-03-30T12:12:08.311Z,4.40
2018-03-30T12:14:35.847Z,3.80
2018-03-30T12:17:04.130Z,4.10
2018-03-30T12:19:31.660Z,3.47
2018-03-30T12:21:59.306Z,4.30
2018-03-30T12:24:26.843Z,3.60
2018-03-30T12:26:54.373Z,3.60
2018-03-30T12:29:21.902Z,3.13
2018-03-30T12:31:50.210Z,3.63
2018-03-30T12:34:17.748Z,3.80
2018-03-30T12:36:46.030Z,3.60
2018-03-30T12:39:14.411Z,3.33
2018-03-30T12:41:42.693Z,4.03
2018-03-30T12:44:10.233Z,3.67
2018-03-30T12:46:38.710Z,3.40
2018-03-30T12:49:06.282Z,5.03
2018-03-30T12:51:34.567Z,4.40
2018-03-30T12:54:02.108Z,3.57
2018-03-30T12:56:30.425Z,3.20
2018-03-30T12:58:57.952Z,3.60
2018-03-30T13:01:26.227Z,2.97
2018-03-30T13:03:53.767Z,2.20
2018-03-30T13:06:21.278Z,2.20
2018-03-30T13:08:48.805Z,1.90
2018-03-30T13:11:17.100Z,1.60
2018-03-30T13:13:44.611Z,1.03
2018-03-30T13:16:12.130Z,1.20
2018-03-30T13:18:39.667Z,1.10
2018-03-30T13:21:07.229Z,1.30
2018-03-30T13:23:34.763Z,1.30
2018-03-30T13:26:02.269Z,1.77
2018-03-30T13:28:29.756Z,1.57
2018-03-30T13:30:57.294Z,1.30
2018-03-30T13:33:24.824Z,1.73
2018-03-30T13:35:52.444Z,1.70
2018-03-30T13:38:26.376Z,1.60
2018-03-30T13:40:54.047Z,1.80
2018-03-30T13:43:22.382Z,1.67
2018-03-30T13:45:49.922Z,1.47
2018-03-30T13:48:17.429Z,1.87
2018-03-30T13:50:46.502Z,1.97
2018-03-30T13:53:31.607Z,1.90
2018-03-30T13:56:01.948Z,1.90
2018-03-30T13:58:30.427Z,1.97
2018-03-30T14:01:04.455Z,2.00
2018-03-30T14:03:33.446Z,1.80
2018-03-30T14:06:11.382Z,2.30
2018-03-30T14:08:46.507Z,2.57
2018-03-30T14:11:25.690Z,2.40
2018-03-30T14:13:54.283Z,2.53
2018-03-30T14:16:29.293Z,2.47
2018-03-30T14:18:58.441Z,2.30
2018-03-30T14:24:22.053Z,3.10
2018-03-30T14:27:03.429Z,3.03
2018-03-30T14:29:37.647Z,3.00
2018-03-30T14:32:17.141Z,3.10
2018-03-30T14:34:56.517Z,3.30
2018-03-30T14:37:28.468Z,3.63
2018-03-30T14:40:02.729Z,2.93
2018-03-30T14:42:31.084Z,3.70
2018-03-30T14:45:16.193Z,3.60
2018-03-30T14:47:44.457Z,3.67
2018-03-30T14:50:14.413Z,3.50
2018-03-30T14:52:59.447Z,3.10
2018-03-30T14:55:31.304Z,3.50
2018-03-30T14:58:03.671Z,3.50
2018-03-30T15:00:35.571Z,3.40
2018-03-30T15:03:05.874Z,2.77
2018-03-30T15:08:33.145Z,3.47
2018-03-30T15:11:07.265Z,2.77
2018-03-30T15:13:46.699Z,3.20
2018-03-30T15:16:28.048Z,3.67
2018-03-30T15:19:00.136Z,3.20
2018-03-30T15:21:43.106Z,2.80
2018-03-30T15:24:23.227Z,2.70
2018-03-30T15:27:09.312Z,2.63
2018-03-30T15:32:34.990Z,5.63
2018-03-30T15:35:02.525Z,2.13
2018-03-30T15:37:31.654Z,3.20
2018-03-30T15:40:10.082Z,3.03
2018-03-30T15:42:39.455Z,4.80
2018-03-30T15:45:22.797Z,4.07
2018-03-30T15:47:50.350Z,3.13
2018-03-30T15:50:17.880Z,2.50
2018-03-30T15:52:45.411Z,4.63
2018-03-30T15:55:13.720Z,3.23
2018-03-30T15:57:41.239Z,2.90
2018-03-30T16:00:09.517Z,3.87
2018-03-30T16:02:37.021Z,6.90
2018-03-30T16:05:04.602Z,5.93
2018-03-30T16:07:32.154Z,7.60
2018-03-30T16:10:20.153Z,6.50
2018-03-30T16:12:47.679Z,7.03
2018-03-30T16:15:15.205Z,6.20
2018-03-30T16:17:42.739Z,7.80
2018-03-30T16:20:09.802Z,6.83
2018-03-30T16:22:36.875Z,6.10
2018-03-30T16:25:03.929Z,7.43
2018-03-30T16:27:30.977Z,8.30
2018-03-30T16:29:58.033Z,6.60
2018-03-30T16:32:25.887Z,5.43
2018-03-30T16:34:52.950Z,5.90
2018-03-30T16:37:19.988Z,5.63
2018-03-30T16:39:47.037Z,6.33
2018-03-30T16:42:14.079Z,5.57
2018-03-30T16:44:41.108Z,3.77
2018-03-30T16:47:08.151Z,5.47
2018-03-30T16:49:35.312Z,4.67
2018-03-30T16:52:02.391Z,5.30
2018-03-30T16:54:30.222Z,6.30
2018-03-30T16:56:57.296Z,6.90
2018-03-30T16:59:24.414Z,4.70
2018-03-30T17:01:51.541Z,4.70
2018-03-30T17:04:18.657Z,5.03
2018-03-30T17:06:45.715Z,12.77
2018-03-30T17:09:13.703Z,11.50
2018-03-30T17:11:41.013Z,10.87
2018-03-30T17:14:08.125Z,7.60
2018-03-30T17:16:35.232Z,8.67
2018-03-30T17:19:02.599Z,8.53
2018-03-30T17:21:29.704Z,8.80
2018-03-30T17:23:56.750Z,9.57
2018-03-30T17:26:23.986Z,10.70
2018-03-30T17:28:51.493Z,13.10
2018-03-30T17:31:18.580Z,10.00
2018-03-30T17:33:45.630Z,11.77
2018-03-30T17:36:13.043Z,10.00
2018-03-30T17:38:41.159Z,7.43
2018-03-30T17:41:08.206Z,7.50
2018-03-30T17:43:35.311Z,7.20
2018-03-30T17:46:02.788Z,7.27
2018-03-30T17:48:29.904Z,7.87
2018-03-30T17:50:56.959Z,9.13
2018-03-30T17:53:24.056Z,9.00
2018-03-30T17:55:51.396Z,9.20
2018-03-30T17:58:18.858Z,10.20
2018-03-30T18:00:46.100Z,9.07
2018-03-30T18:03:13.393Z,8.90
2018-03-30T18:05:41.483Z,8.77
2018-03-30T18:08:08.640Z,9.60
2018-03-30T18:10:35.680Z,10.60
2018-03-30T18:13:03.330Z,12.80
2018-03-30T18:15:30.468Z,14.00
2018-03-30T18:17:57.546Z,15.00
2018-03-30T18:20:24.575Z,11.13
2018-03-30T18:22:51.657Z,9.37
2018-03-30T18:25:19.654Z,7.90
2018-03-30T18:27:46.790Z,7.97
2018-03-30T18:30:13.879Z,7.77
2018-03-30T18:32:41.071Z,8.20
2018-03-30T18:35:09.747Z,9.83
2018-03-30T18:37:39.691Z,10.50
2018-03-30T18:40:07.644Z,7.77
2018-03-30T18:42:34.814Z,6.87
2018-03-30T18:45:02.670Z,8.60
2018-03-30T18:47:30.729Z,8.13
2018-03-30T18:49:57.813Z,7.80
2018-03-30T18:52:24.930Z,7.77
2018-03-30T18:54:52.743Z,6.83
2018-03-30T18:57:19.973Z,6.57
2018-03-30T18:59:47.023Z,6.87
2018-03-30T19:02:14.665Z,7.37
2018-03-30T19:04:42.299Z,7.17
2018-03-30T19:07:09.567Z,7.40
2018-03-30T19:09:37.426Z,8.33
2018-03-30T19:12:04.488Z,7.70
2018-03-30T19:14:32.469Z,7.07
2018-03-30T19:16:59.763Z,6.70
2018-03-30T19:19:26.872Z,7.47
2018-03-30T19:21:53.936Z,7.53
2018-03-30T19:24:21.275Z,9.83
2018-03-30T19:26:48.348Z,12.53
2018-03-30T19:29:15.382Z,7.80
2018-03-30T19:31:42.682Z,7.10
2018-03-30T19:34:10.396Z,6.03
2018-03-30T19:36:37.579Z,5.93
2018-03-30T19:39:04.646Z,5.27
2018-03-30T19:41:31.971Z,5.40
2018-03-30T19:43:59.076Z,4.00
2018-03-30T19:46:26.167Z,4.50
2018-03-30T19:48:53.239Z,3.97
2018-03-30T19:51:20.910Z,3.83
2018-03-30T19:53:47.975Z,4.40
2018-03-30T19:56:15.778Z,3.90
2018-03-30T19:58:43.115Z,6.67
2018-03-30T20:01:10.254Z,6.27
2018-03-30T20:03:37.320Z,5.30
2018-03-30T20:06:05.367Z,5.40
2018-03-30T20:08:33.026Z,5.30
2018-03-30T20:11:00.192Z,3.43
2018-03-30T20:13:27.346Z,6.00
2018-03-30T20:15:54.387Z,6.63
2018-03-30T20:18:21.886Z,8.82
2018-03-30T20:20:49.031Z,5.43
2018-03-30T20:23:16.103Z,3.70
2018-03-30T20:25:43.163Z,2.97
2018-03-30T20:28:10.216Z,5.60
2018-03-30T20:30:37.288Z,5.33
2018-03-30T20:33:05.114Z,5.10
2018-03-30T20:35:32.189Z,3.70
2018-03-30T20:37:59.995Z,3.37
2018-03-30T20:40:27.015Z,4.40
2018-03-30T20:42:54.104Z,3.70
2018-03-30T20:45:21.147Z,5.33
2018-03-30T20:47:48.222Z,8.83
2018-03-30T20:50:15.288Z,5.68
2018-03-30T20:52:43.092Z,9.03
2018-03-30T20:55:10.188Z,4.22
2018-03-30T20:57:37.254Z,20.03
2018-03-30T21:00:05.082Z,10.63
2018-03-30T21:02:32.109Z,5.37
2018-03-30T21:04:59.181Z,7.30
2018-03-30T21:07:26.265Z,4.40
2018-03-30T21:09:54.129Z,4.10
2018-03-30T21:12:21.916Z,4.43
2018-03-30T21:14:48.955Z,3.80
2018-03-30T21:17:15.996Z,4.90
2018-03-30T21:19:43.831Z,5.47
2018-03-30T21:22:10.898Z,5.60
2018-03-30T21:24:38.037Z,3.70
2018-03-30T21:27:05.092Z,3.47
2018-03-30T21:29:32.925Z,3.80
2018-03-30T21:31:59.957Z,5.47
2018-03-30T21:34:27.076Z,5.37
2018-03-30T21:36:54.030Z,6.67
2018-03-30T21:39:21.141Z,4.33
2018-03-30T21:41:48.107Z,4.97
2018-03-30T21:44:15.920Z,4.70
2018-03-30T21:46:42.946Z,3.90
2018-03-30T21:49:09.980Z,3.83
2018-03-30T21:51:36.995Z,3.70
2018-03-30T21:54:04.022Z,3.83
2018-03-30T21:56:31.063Z,3.97
2018-03-30T21:58:58.110Z,4.90
2018-03-30T22:01:25.153Z,5.00
2018-03-30T22:03:52.290Z,4.60
2018-03-30T22:06:19.328Z,4.70
2018-03-30T22:08:46.364Z,4.57
2018-03-30T22:11:13.464Z,4.47
2018-03-30T22:13:40.466Z,4.60
2018-03-30T22:16:07.573Z,4.30
2018-03-30T22:18:34.607Z,3.53
2018-03-30T22:21:01.634Z,3.70
2018-03-30T22:23:28.702Z,13.03
2018-03-30T22:25:55.840Z,3.92
2018-03-30T22:28:22.895Z,9.60
2018-03-30T22:30:49.890Z,3.53
2018-03-30T22:33:16.998Z,3.90
2018-03-30T22:35:44.070Z,3.70
2018-03-30T22:38:12.254Z,3.67
2018-03-30T22:40:39.344Z,3.83
2018-03-30T22:43:06.403Z,3.25
2018-03-30T22:45:33.460Z,3.67
2018-03-30T22:48:00.500Z,2.97
2018-03-30T22:50:27.532Z,3.40
2018-03-30T22:52:54.598Z,3.00
2018-03-30T22:55:21.626Z,3.60
2018-03-30T22:57:48.769Z,3.40
2018-03-30T23:00:15.839Z,3.58
2018-03-30T23:02:42.937Z,4.00
2018-03-30T23:05:09.958Z,3.05
2018-03-30T23:07:37.022Z,3.23
2018-03-30T23:10:04.109Z,3.22
2018-03-30T23:12:31.160Z,3.27
2018-03-30T23:14:58.219Z,3.17
2018-03-30T23:17:25.258Z,3.20
2018-03-30T23:19:52.326Z,3.10
2018-03-30T23:22:19.397Z,3.37
2018-03-30T23:24:46.477Z,3.13
2018-03-30T23:27:13.508Z,3.13
2018-03-30T23:29:41.320Z,3.67
2018-03-30T23:32:08.371Z,3.13
2018-03-30T23:34:35.413Z,2.77
2018-03-30T23:37:02.447Z,2.63
2018-03-30T23:39:29.498Z,2.90
2018-03-30T23:41:56.514Z,2.70
2018-03-30T23:44:23.558Z,3.50
2018-03-30T23:46:50.584Z,3.43
2018-03-30T23:49:17.624Z,4.00
2018-03-30T23:51:44.628Z,10.30
2018-03-30T23:54:11.676Z,29.90
2018-03-30T23:56:38.689Z,6.63
2018-03-30T23:59:06.618Z,5.87
